Time,TemperatureF,DewpointF,PressureIn,WindDirection,WindDirectionDegrees,WindSpeedMPH,WindSpeedGustMPH,Humidity,HourlyPrecipIn,Conditions,Clouds,dailyrainin,SolarRadiationWatts/m^2,SoftwareType,DateUTC
2013-09-22 00:01:00,56.0,39.0,-100.00,SSW,213,1.0,2.0,53,0.00,,,0.00,0.000000,,2013-09-22 06:01:00,
2013-09-22 00:22:00,56.0,39.0,-100.00,SSW,213,1.0,2.0,53,0.00,,,0.00,0.000000,,2013-09-22 06:22:00,
2013-09-22 00:32:00,56.0,39.0,-100.00,SSW,213,1.0,2.0,53,0.00,,,0.00,0.000000,,2013-09-22 06:32:00,
2013-09-22 00:42:00,56.0,39.0,-100.00,SSW,213,1.0,2.0,53,0.00,,,0.00,0.000000,,2013-09-22 06:42:00,
2013-09-22 00:52:00,56.0,39.0,-100.00,SSW,213,1.0,2.0,53,0.00,,,0.00,0.000000,,2013-09-22 06:52:00,
2013-09-22 01:01:00,55.0,41.0,-100.00,SSW,204,1.0,3.0,58,0.00,,,0.00,0.000000,,2013-09-22 07:01:00,
2013-09-22 01:22:00,55.0,41.0,-100.00,SSW,204,1.0,3.0,58,0.00,,,0.00,0.000000,,2013-09-22 07:22:00,
2013-09-22 01:32:00,55.0,41.0,-100.00,SSW,204,1.0,3.0,58,0.00,,,0.00,0.000000,,2013-09-22 07:32:00,
2013-09-22 01:42:00,55.0,41.0,-100.00,SSW,204,1.0,3.0,58,0.00,,,0.00,0.000000,,2013-09-22 07:42:00,
2013-09-22 01:52:00,55.0,41.0,-100.00,SSW,204,1.0,3.0,58,0.00,,,0.00,0.000000,,2013-09-22 07:52:00,
2013-09-22 02:01:00,53.0,42.0,-100.00,WSW,251,2.0,3.0,66,0.00,,,0.00,0.000000,,2013-09-22 08:01:00,
2013-09-22 02:22:00,53.0,42.0,-100.00,WSW,251,2.0,3.0,66,0.00,,,0.00,0.000000,,2013-09-22 08:22:00,
2013-09-22 02:32:00,53.0,42.0,-100.00,WSW,251,2.0,3.0,66,0.00,,,0.00,0.000000,,2013-09-22 08:32:00,
2013-09-22 02:42:00,53.0,42.0,-100.00,WSW,251,2.0,3.0,66,0.00,,,0.00,0.000000,,2013-09-22 08:42:00,
2013-09-22 02:52:00,53.0,42.0,-100.00,WSW,251,2.0,3.0,66,0.00,,,0.00,0.000000,,2013-09-22 08:52:00,
2013-09-22 03:01:00,52.0,44.0,-100.00,SSW,207,1.0,3.0,74,0.00,,,0.00,0.000000,,2013-09-22 09:01:00,
2013-09-22 03:22:00,52.0,44.0,-100.00,SSW,207,1.0,3.0,74,0.00,,,0.00,0.000000,,2013-09-22 09:22:00,
2013-09-22 03:33:00,52.0,44.0,-100.00,SSW,207,1.0,3.0,74,0.00,,,0.00,0.000000,,2013-09-22 09:33:00,
2013-09-22 03:43:00,52.0,44.0,-100.00,SSW,207,1.0,3.0,74,0.00,,,0.00,0.000000,,2013-09-22 09:43:00,
2013-09-22 03:53:00,52.0,44.0,-100.00,SSW,207,1.0,3.0,74,0.00,,,0.00,0.000000,,2013-09-22 09:53:00,
2013-09-22 04:23:00,53.0,44.0,-100.00,SW,214,1.0,6.0,71,0.00,,,0.00,0.000000,,2013-09-22 10:23:00,
2013-09-22 04:33:00,53.0,44.0,-100.00,SW,214,1.0,6.0,71,0.00,,,0.00,0.000000,,2013-09-22 10:33:00,
2013-09-22 04:44:00,53.0,44.0,-100.00,SW,214,1.0,6.0,71,0.00,,,0.00,0.000000,,2013-09-22 10:44:00,
2013-09-22 04:53:00,53.0,44.0,-100.00,SW,214,1.0,6.0,71,0.00,,,0.00,0.000000,,2013-09-22 10:53:00,
2013-09-22 05:01:00,50.0,47.0,-100.00,SW,219,2.0,3.0,89,0.00,,,0.00,0.000000,,2013-09-22 11:01:00,
2013-09-22 05:42:00,50.0,47.0,-100.00,SW,219,2.0,3.0,89,0.00,,,0.00,0.000000,,2013-09-22 11:42:00,
2013-09-22 05:52:00,50.0,47.0,-100.00,SW,219,2.0,3.0,89,0.00,,,0.00,0.000000,,2013-09-22 11:52:00,
2013-09-22 06:01:00,51.0,48.0,-100.00,SSW,198,2.0,5.0,91,0.00,,,0.00,0.000000,,2013-09-22 12:01:00,
2013-09-22 06:22:00,51.0,48.0,-100.00,SSW,198,2.0,5.0,91,0.00,,,0.00,0.000000,,2013-09-22 12:22:00,
2013-09-22 06:32:00,51.0,48.0,-100.00,SSW,198,2.0,5.0,91,0.00,,,0.00,0.000000,,2013-09-22 12:32:00,
2013-09-22 06:42:00,51.0,48.0,-100.00,SSW,198,2.0,5.0,91,0.00,,,0.00,0.000000,,2013-09-22 12:42:00,
2013-09-22 06:52:00,51.0,48.0,-100.00,SSW,198,2.0,5.0,91,0.00,,,0.00,0.000000,,2013-09-22 12:52:00,
2013-09-22 07:01:00,49.0,46.0,-100.00,SSW,205,2.0,4.0,88,0.00,,,0.00,0.000000,,2013-09-22 13:01:00,
2013-09-22 07:42:00,49.0,46.0,-100.00,SSW,205,2.0,4.0,88,0.00,,,0.00,0.000000,,2013-09-22 13:42:00,
2013-09-22 07:52:00,49.0,46.0,-100.00,SSW,205,2.0,4.0,88,0.00,,,0.00,0.000000,,2013-09-22 13:52:00,
2013-09-22 08:01:00,49.0,45.0,-100.00,SW,229,0.0,2.0,87,0.00,,,0.00,4.000000,,2013-09-22 14:01:00,
2013-09-22 08:42:00,49.0,45.0,-100.00,SW,229,0.0,2.0,87,0.00,,,0.00,4.000000,,2013-09-22 14:42:00,
2013-09-22 08:52:00,49.0,45.0,-100.00,SW,229,0.0,2.0,87,0.00,,,0.00,4.000000,,2013-09-22 14:52:00,
2013-09-22 09:01:00,50.0,45.0,-100.00,SW,228,0.0,0.0,84,0.00,,,0.00,18.000000,,2013-09-22 15:01:00,
2013-09-22 09:23:00,50.0,45.0,-100.00,SW,228,0.0,0.0,84,0.00,,,0.00,18.000000,,2013-09-22 15:23:00,
2013-09-22 09:34:00,50.0,45.0,-100.00,SW,228,0.0,0.0,84,0.00,,,0.00,18.000000,,2013-09-22 15:34:00,
2013-09-22 09:44:00,50.0,45.0,-100.00,SW,228,0.0,0.0,84,0.00,,,0.00,18.000000,,2013-09-22 15:44:00,
2013-09-22 09:55:00,50.0,45.0,-100.00,SW,228,0.0,0.0,84,0.00,,,0.00,18.000000,,2013-09-22 15:55:00,
2013-09-22 10:01:00,53.0,48.0,-100.00,South,190,0.0,2.0,83,0.00,,,0.00,76.000000,,2013-09-22 16:01:00,
2013-09-22 10:24:00,53.0,48.0,-100.00,South,190,0.0,2.0,83,0.00,,,0.00,76.000000,,2013-09-22 16:24:00,
2013-09-22 10:33:00,53.0,48.0,-100.00,South,190,0.0,2.0,83,0.00,,,0.00,76.000000,,2013-09-22 16:33:00,
2013-09-22 10:43:00,53.0,48.0,-100.00,South,190,0.0,2.0,83,0.00,,,0.00,76.000000,,2013-09-22 16:43:00,
2013-09-22 10:54:00,53.0,48.0,-100.00,South,190,0.0,2.0,83,0.00,,,0.00,76.000000,,2013-09-22 16:54:00,
2013-09-22 11:01:00,54.0,48.0,-100.00,SSE,165,3.0,7.0,79,0.00,,,0.00,159.000000,,2013-09-22 17:01:00,
2013-09-22 11:43:00,54.0,48.0,-100.00,SSE,165,3.0,7.0,79,0.00,,,0.00,159.000000,,2013-09-22 17:43:00,
2013-09-22 11:53:00,54.0,48.0,-100.00,SSE,165,3.0,7.0,79,0.00,,,0.00,159.000000,,2013-09-22 17:53:00,
2013-09-22 12:01:00,58.0,50.0,-100.00,SSE,147,4.0,7.0,74,0.00,,,0.00,298.000000,,2013-09-22 18:01:00,
2013-09-22 12:42:00,58.0,50.0,-100.00,SSE,147,4.0,7.0,74,0.00,,,0.00,298.000000,,2013-09-22 18:42:00,
2013-09-22 12:52:00,58.0,50.0,-100.00,SSE,147,4.0,7.0,74,0.00,,,0.00,298.000000,,2013-09-22 18:52:00,
2013-09-22 13:01:00,60.0,49.0,-100.00,SSE,164,5.0,10.0,66,0.00,,,0.00,380.000000,,2013-09-22 19:01:00,
2013-09-22 13:42:00,60.0,49.0,-100.00,SSE,164,5.0,10.0,66,0.00,,,0.00,380.000000,,2013-09-22 19:42:00,
2013-09-22 13:52:00,60.0,49.0,-100.00,SSE,164,5.0,10.0,66,0.00,,,0.00,380.000000,,2013-09-22 19:52:00,
2013-09-22 14:01:00,58.0,45.0,-100.00,SSW,207,4.0,11.0,61,0.00,,,0.00,196.000000,,2013-09-22 20:01:00,
2013-09-22 14:42:00,58.0,45.0,-100.00,SSW,207,4.0,11.0,61,0.00,,,0.00,196.000000,,2013-09-22 20:42:00,
2013-09-22 14:52:00,58.0,45.0,-100.00,SSW,207,4.0,11.0,61,0.00,,,0.00,196.000000,,2013-09-22 20:52:00,
2013-09-22 15:01:00,58.0,51.0,-100.00,South,181,2.0,6.0,78,0.00,,,0.00,209.000000,,2013-09-22 21:01:00,
2013-09-22 15:45:00,58.0,51.0,-100.00,South,181,2.0,6.0,78,0.00,,,0.00,209.000000,,2013-09-22 21:45:00,
2013-09-22 15:54:00,58.0,51.0,-100.00,South,181,2.0,6.0,78,0.00,,,0.00,209.000000,,2013-09-22 21:54:00,
2013-09-22 16:01:00,57.0,44.0,-100.00,SE,137,3.0,8.0,62,0.00,,,0.00,199.000000,,2013-09-22 22:01:00,
2013-09-22 16:43:00,57.0,44.0,-100.00,SE,137,3.0,8.0,62,0.00,,,0.00,199.000000,,2013-09-22 22:43:00,
2013-09-22 16:53:00,57.0,44.0,-100.00,SE,137,3.0,8.0,62,0.00,,,0.00,199.000000,,2013-09-22 22:53:00,
2013-09-22 17:01:00,53.0,48.0,-100.00,WNW,289,2.0,6.0,84,0.00,,,0.00,85.000000,,2013-09-22 23:01:00,
2013-09-22 17:43:00,53.0,48.0,-100.00,WNW,289,2.0,6.0,84,0.00,,,0.00,85.000000,,2013-09-22 23:43:00,
2013-09-22 17:52:00,53.0,48.0,-100.00,WNW,289,2.0,6.0,84,0.00,,,0.00,85.000000,,2013-09-22 23:52:00,
2013-09-22 18:01:00,51.0,49.0,-100.00,SW,236,2.0,3.0,93,0.00,,,-99.99,37.000000,,2013-09-23 00:01:00,
2013-09-22 18:23:00,51.0,49.0,-100.00,SW,236,2.0,3.0,93,0.00,,,-99.99,37.000000,,2013-09-23 00:23:00,
2013-09-22 18:32:00,51.0,49.0,-100.00,SW,236,2.0,3.0,93,0.00,,,-99.99,37.000000,,2013-09-23 00:32:00,
2013-09-22 18:42:00,51.0,49.0,-100.00,SW,236,2.0,3.0,93,0.00,,,-99.99,37.000000,,2013-09-23 00:42:00,
2013-09-22 18:53:00,51.0,49.0,-100.00,SW,236,2.0,3.0,93,0.00,,,-99.99,37.000000,,2013-09-23 00:53:00,
2013-09-22 19:01:00,50.0,49.0,-100.00,SSW,209,2.0,3.0,95,0.00,,,0.00,51.000000,,2013-09-23 01:01:00,
2013-09-22 19:22:00,50.0,49.0,-100.00,SSW,209,2.0,3.0,95,0.00,,,0.00,51.000000,,2013-09-23 01:22:00,
2013-09-22 19:32:00,50.0,49.0,-100.00,SSW,209,2.0,3.0,95,0.00,,,0.00,51.000000,,2013-09-23 01:32:00,
2013-09-22 19:43:00,50.0,49.0,-100.00,SSW,209,2.0,3.0,95,0.00,,,0.00,51.000000,,2013-09-23 01:43:00,
2013-09-22 19:52:00,50.0,49.0,-100.00,SSW,209,2.0,3.0,95,0.00,,,0.00,51.000000,,2013-09-23 01:52:00,
2013-09-22 20:01:00,49.0,45.0,-100.00,SW,228,2.0,4.0,87,0.00,,,0.00,29.000000,,2013-09-23 02:01:00,
2013-09-22 20:42:00,49.0,45.0,-100.00,SW,228,2.0,4.0,87,0.00,,,0.00,29.000000,,2013-09-23 02:42:00,
2013-09-22 20:52:00,49.0,45.0,-100.00,SW,228,2.0,4.0,87,0.00,,,0.00,29.000000,,2013-09-23 02:52:00,
2013-09-22 21:01:00,45.0,44.0,-100.00,SW,224,2.0,4.0,95,0.00,,,0.00,0.000000,,2013-09-23 03:01:00,
2013-09-22 21:54:00,45.0,44.0,-100.00,SW,224,2.0,4.0,95,0.00,,,0.00,0.000000,,2013-09-23 03:54:00,
2013-09-22 22:01:00,46.0,45.0,-100.00,SW,217,2.0,4.0,96,0.00,,,0.00,0.000000,,2013-09-23 04:01:00,
2013-09-22 22:24:00,46.0,45.0,-100.00,SW,217,2.0,4.0,96,0.00,,,0.00,0.000000,,2013-09-23 04:24:00,
2013-09-22 22:34:00,46.0,45.0,-100.00,SW,217,2.0,4.0,96,0.00,,,0.00,0.000000,,2013-09-23 04:34:00,
2013-09-22 22:43:00,46.0,45.0,-100.00,SW,217,2.0,4.0,96,0.00,,,0.00,0.000000,,2013-09-23 04:43:00,
2013-09-22 22:54:00,46.0,45.0,-100.00,SW,217,2.0,4.0,96,0.00,,,0.00,0.000000,,2013-09-23 04:54:00,
2013-09-22 23:01:00,47.0,45.0,-100.00,SW,233,2.0,3.0,94,0.00,,,0.00,0.000000,,2013-09-23 05:01:00,
2013-09-22 23:23:00,47.0,45.0,-100.00,SW,233,2.0,3.0,94,0.00,,,0.00,0.000000,,2013-09-23 05:23:00,
2013-09-22 23:34:00,47.0,45.0,-100.00,SW,233,2.0,3.0,94,0.00,,,0.00,0.000000,,2013-09-23 05:34:00,
2013-09-22 23:43:00,47.0,45.0,-100.00,SW,233,2.0,3.0,94,0.00,,,0.00,0.000000,,2013-09-23 05:43:00,
2013-09-22 23:53:00,47.0,45.0,-100.00,SW,233,2.0,3.0,94,0.00,,,0.00,0.000000,,2013-09-23 05:53:00,